KGWB

Details ICAO KGWB
Name DE KALB CO
Region United States
Timezone America/Indiana/Indianapolis (UTC-5.0)
Plans Departing 0
Arriving 1
Stats Elevation 880 ft / 268 m (AMSL)
Location 41.307162° -85.064350°
Runways 1
Magnetic Variation 5.828° W
Sunrise 2017-12-11 12:57:38 UTC / 2017-12-11 07:57:38 Local
Sunset 2017-12-11 22:12:30 UTC / 2017-12-11 17:12:30 Local
Advertisement - Login to hide

Runways

ID Width Length Bearing (true) Bearing (mag) Surface Threshold Offset Overrun Length
09 100 ft / 30 m 4,988 ft / 1,520 m 89.31° 95.14° Asphalt 0 ft / 0 m 0 ft / 0 m
27 100 ft / 30 m 4,988 ft / 1,520 m 269.32° 275.15° Asphalt 275 ft / 84 m 0 ft / 0 m

Approach Navaids

Runway Type Ident Frequency Range Bearing (true) Bearing (mag) Slope Elevation
27 Localiser GWB 108.95 MHz 18 nm / 33 km 269.31° 275.13° - 860 ft / 262 m (AMSL)
27 Glidescope GWB 108.95 MHz 10 nm / 19 km 269.32° 275.15° 3.00° 878 ft / 268 m (AMSL)

Map

Weather


0- 5 10 15 20 25 30 35+ Temperature / ° C

Clouds and Precipitation
Forecast for 2017-12-11 12:00 UTC. Updated 5 minutes ago

Ground ~20,000 ft ~40,000 ft Winds

METAR

KGWB 110715Z AUTO 00000KT 10SM OVC029 M01/M05 A3003 RMK AO2

TAF

Not found

Frequencies

Recorded 124.15 MHz AWOS 3
Clearance 126.60 MHz CLNC DEL
Approach 132.15 MHz FORT WAYNE APP/DEP
Unicom 123.00 MHz CTAF/UNICOM
Approach 127.20 MHz FORT WAYNE APP/DEP
Warning: Do not use this data for real-world aviation or navigation. No guarantee of current accuracy is given.